Time;durP1;ratioP1;P1;durP2;ratioP2;P2;SDS_P1;SDS_P2;PMS_P1;PMS_P2;Temp;Humidity;BMP_temperature;BMP_pressure;BME280_temperature;BME280_humidity;BME280_pressure;Samples;Min_cycle;Max_cycle;Signal;HPM_P1;HPM_P2
2022/08/08 00:03:59;;;;;;;2.97;2.30;;;12.40;99.90;;;;;;10333335;28;20049;-78
2022/08/08 00:09:24;;;;;;;3.55;2.20;;;12.70;99.90;;;;;;10365827;28;20095;-78
2022/08/08 00:14:41;;;;;;;5.77;2.47;;;13.00;99.90;;;;;;10366480;28;20081;-79
2022/08/08 00:19:43;;;;;;;2.63;2.05;;;13.10;99.90;;;;;;10365612;28;20041;-79
2022/08/08 00:24:56;;;;;;;4.03;1.95;;;13.20;99.90;;;;;;10362372;28;20034;-78
2022/08/08 00:30:06;;;;;;;3.60;1.92;;;13.10;99.90;;;;;;10361812;28;20030;-79
2022/08/08 00:35:42;;;;;;;2.80;1.80;;;13.10;99.90;;;;;;10363607;28;20034;-79
2022/08/08 00:41:24;;;;;;;4.70;2.22;;;13.00;99.90;;;;;;10362648;28;20474;-78
2022/08/08 00:46:36;;;;;;;2.92;2.08;;;12.90;99.90;;;;;;10324790;28;20047;-78
2022/08/08 00:52:14;;;;;;;2.95;2.22;;;12.90;99.90;;;;;;10362775;28;20050;-78
2022/08/08 00:57:39;;;;;;;4.60;2.30;;;13.10;99.90;;;;;;10364686;28;20405;-77
2022/08/08 01:03:07;;;;;;;2.50;1.73;;;13.10;99.90;;;;;;10361582;28;20735;-78
2022/08/08 01:08:26;;;;;;;4.00;2.00;;;13.20;99.90;;;;;;10361636;28;20034;-77
2022/08/08 01:14:17;;;;;;;2.78;2.10;;;13.20;99.90;;;;;;10362981;28;20033;-77
2022/08/08 01:19:43;;;;;;;2.40;2.10;;;13.30;99.90;;;;;;10333210;28;20049;-78
2022/08/08 01:25:18;;;;;;;3.50;2.10;;;13.30;99.90;;;;;;10361864;28;20450;-77
2022/08/08 01:30:50;;;;;;;4.47;2.25;;;13.30;99.90;;;;;;10360900;28;20042;-78
2022/08/08 01:36:27;;;;;;;5.57;2.20;;;13.30;99.90;;;;;;10344401;28;20045;-78
2022/08/08 01:41:45;;;;;;;3.47;2.05;;;13.20;99.90;;;;;;10359012;28;20061;-78
2022/08/08 01:47:03;;;;;;;4.55;2.28;;;13.20;99.90;;;;;;10361619;28;20034;-78
2022/08/08 01:52:22;;;;;;;2.45;1.80;;;13.20;99.90;;;;;;10362251;28;20152;-78
2022/08/08 01:57:54;;;;;;;4.55;1.90;;;13.10;99.90;;;;;;10358928;28;20042;-77
2022/08/08 02:03:16;;;;;;;33.38;31.02;;;13.20;99.90;;;;;;10361565;28;20046;-77
2022/08/08 02:08:17;;;;;;;3.42;2.25;;;13.20;99.90;;;;;;10357253;28;20045;-77
2022/08/08 02:13:37;;;;;;;3.85;2.10;;;13.40;99.90;;;;;;10361317;28;20041;-78
2022/08/08 02:18:41;;;;;;;3.75;1.73;;;13.40;99.90;;;;;;10358274;28;20041;-78
2022/08/08 02:23:48;;;;;;;3.03;2.10;;;13.40;99.90;;;;;;10362080;28;20517;-78
2022/08/08 02:29:16;;;;;;;4.30;2.08;;;13.40;99.90;;;;;;10362377;28;20042;-78
2022/08/08 02:34:48;;;;;;;6.45;2.30;;;13.30;99.90;;;;;;10360138;28;20045;-77
2022/08/08 02:40:14;;;;;;;4.70;2.30;;;13.30;99.90;;;;;;10357683;28;20035;-78
2022/08/08 02:45:34;;;;;;;5.53;2.55;;;13.20;99.90;;;;;;10359437;28;20486;-78
2022/08/08 02:51:25;;;;;;;2.17;1.67;;;13.20;99.90;;;;;;10360516;28;20548;-78
2022/08/08 02:56:38;;;;;;;5.43;2.50;;;13.10;99.90;;;;;;10323717;28;20050;-78
2022/08/08 03:01:47;;;;;;;5.60;2.22;;;13.10;99.90;;;;;;10366953;28;20018;-78
2022/08/08 03:07:05;;;;;;;5.38;2.20;;;13.10;99.90;;;;;;10365321;28;20026;-78
2022/08/08 03:12:35;;;;;;;5.53;2.42;;;13.10;99.90;;;;;;10370579;28;20022;-77
2022/08/08 03:17:53;;;;;;;3.10;2.22;;;13.00;99.90;;;;;;10369375;28;20096;-78
2022/08/08 03:22:54;;;;;;;3.67;2.10;;;13.00;99.90;;;;;;10369991;28;20444;-77
2022/08/08 03:28:28;;;;;;;3.42;1.98;;;13.00;99.90;;;;;;10367905;28;20029;-77
2022/08/08 03:33:30;;;;;;;4.13;2.63;;;13.00;99.90;;;;;;10357406;28;20047;-77
2022/08/08 03:38:30;;;;;;;3.13;2.08;;;12.90;99.90;;;;;;10355913;28;20021;-77
2022/08/08 03:43:31;;;;;;;5.22;2.83;;;12.90;99.90;;;;;;10363246;28;20384;-77
2022/08/08 03:48:31;;;;;;;7.03;2.72;;;12.90;99.90;;;;;;10365555;28;20033;-77
2022/08/08 03:53:35;;;;;;;3.88;2.58;;;12.90;99.90;;;;;;10364563;28;20066;-77
2022/08/08 03:58:36;;;;;;;5.03;2.60;;;12.90;99.90;;;;;;10366625;28;20386;-77
2022/08/08 04:03:37;;;;;;;4.30;2.63;;;12.90;99.90;;;;;;10364775;28;20018;-78
2022/08/08 04:08:38;;;;;;;5.53;2.47;;;12.80;99.90;;;;;;10360786;28;20033;-78
2022/08/08 04:13:38;;;;;;;4.85;2.80;;;12.80;99.90;;;;;;10362140;28;20048;-82
2022/08/08 04:18:40;;;;;;;4.22;2.83;;;12.80;99.90;;;;;;10366206;28;20046;-80
2022/08/08 04:23:41;;;;;;;3.83;2.78;;;12.90;99.90;;;;;;10364927;28;20029;-79
2022/08/08 04:28:41;;;;;;;4.10;2.55;;;13.00;99.90;;;;;;10366084;28;20022;-79
2022/08/08 04:33:42;;;;;;;5.80;2.72;;;13.10;99.90;;;;;;10343411;28;20045;-78
2022/08/08 04:38:43;;;;;;;4.35;2.47;;;13.10;99.90;;;;;;10364785;28;20033;-81
2022/08/08 04:43:43;;;;;;;3.70;2.10;;;13.20;99.90;;;;;;10343874;28;20032;-81
2022/08/08 04:48:44;;;;;;;3.60;2.78;;;13.40;99.90;;;;;;10366151;28;20488;-81
2022/08/08 04:53:44;;;;;;;3.45;2.60;;;13.60;99.90;;;;;;10347187;28;20879;-80
2022/08/08 04:58:45;;;;;;;4.75;2.38;;;13.80;99.90;;;;;;10351994;28;20030;-80
2022/08/08 05:03:45;;;;;;;5.55;2.28;;;14.00;99.90;;;;;;10363027;28;20053;-81
2022/08/08 05:08:46;;;;;;;4.57;2.45;;;14.00;99.90;;;;;;10365337;28;20095;-81
2022/08/08 05:13:47;;;;;;;4.70;2.25;;;14.30;99.90;;;;;;10363822;28;20038;-81
2022/08/08 05:18:48;;;;;;;5.70;2.20;;;14.50;99.90;;;;;;10365219;28;20037;-81
2022/08/08 05:23:48;;;;;;;5.60;2.35;;;14.70;99.90;;;;;;10364064;28;20038;-80
2022/08/08 05:28:49;;;;;;;3.17;2.00;;;14.90;99.90;;;;;;10362890;28;20049;-80
2022/08/08 05:33:50;;;;;;;2.80;1.98;;;15.30;99.90;;;;;;10340891;28;20148;-81
2022/08/08 05:38:51;;;;;;;2.45;1.90;;;15.40;99.90;;;;;;10362548;28;20392;-81
2022/08/08 05:44:02;;;;;;;3.25;2.40;;;15.50;99.90;;;;;;10363713;28;20492;-80
2022/08/08 05:49:03;;;;;;;4.85;2.35;;;15.50;99.90;;;;;;10361389;28;20029;-80
2022/08/08 05:54:04;;;;;;;5.20;2.17;;;15.60;99.90;;;;;;10362244;28;20720;-81
2022/08/08 05:59:09;;;;;;;6.22;1.90;;;15.80;99.90;;;;;;10363239;28;20033;-81
2022/08/08 06:04:11;;;;;;;5.05;1.95;;;15.90;99.90;;;;;;10358893;28;20068;-81
2022/08/08 06:09:13;;;;;;;3.72;1.55;;;16.20;99.90;;;;;;10361080;28;20438;-80
2022/08/08 06:14:14;;;;;;;5.10;1.80;;;16.40;99.90;;;;;;10361503;28;20120;-80
2022/08/08 06:19:15;;;;;;;3.88;1.75;;;16.60;99.90;;;;;;10358181;28;20053;-81
2022/08/08 06:24:16;;;;;;;3.20;2.00;;;16.70;99.90;;;;;;10360812;28;20014;-81
2022/08/08 06:29:28;;;;;;;3.42;1.63;;;16.90;99.90;;;;;;10370645;28;20034;-81
2022/08/08 06:34:36;;;;;;;2.30;1.50;;;16.90;99.90;;;;;;10365424;28;20137;-81
2022/08/08 06:39:43;;;;;;;4.43;1.52;;;17.10;99.90;;;;;;10367059;28;20030;-82
2022/08/08 06:44:49;;;;;;;3.00;1.15;;;17.40;99.90;;;;;;10363741;28;20023;-81
2022/08/08 06:49:50;;;;;;;2.90;1.48;;;17.80;99.90;;;;;;10359338;28;20026;-81
2022/08/08 06:54:51;;;;;;;3.90;1.25;;;18.30;99.90;;;;;;10347847;28;20108;-80
2022/08/08 06:59:53;;;;;;;3.97;1.42;;;18.60;98.60;;;;;;10369636;28;20033;-80
2022/08/08 07:04:56;;;;;;;2.13;1.08;;;19.00;96.20;;;;;;10369467;28;20080;-81
2022/08/08 07:10:04;;;;;;;4.10;1.00;;;19.40;95.60;;;;;;10369645;28;20033;-82
2022/08/08 07:15:07;;;;;;;2.03;0.98;;;19.90;93.70;;;;;;10366880;28;20041;-80
2022/08/08 07:20:09;;;;;;;2.25;0.98;;;21.10;89.60;;;;;;10367613;28;20033;-82
2022/08/08 07:25:11;;;;;;;3.28;0.80;;;22.00;82.10;;;;;;10358576;28;20386;-81
2022/08/08 07:30:13;;;;;;;2.22;0.70;;;22.80;83.00;;;;;;10361994;28;20034;-81
2022/08/08 07:35:14;;;;;;;1.77;0.80;;;23.30;79.80;;;;;;10363094;28;20130;-83
2022/08/08 07:40:16;;;;;;;0.93;0.80;;;23.20;77.20;;;;;;10354619;28;20030;-81
2022/08/08 07:52:00;;;;;;;1.40;1.00;;;23.20;77.80;;;;;;10345246;28;20062;-82
2022/08/08 07:57:32;;;;;;;4.38;1.08;;;22.90;76.20;;;;;;10334222;28;20505;-81
2022/08/08 08:02:42;;;;;;;1.00;0.60;;;23.10;72.10;;;;;;10357704;28;20073;-82
2022/08/08 08:07:47;;;;;;;1.63;0.70;;;23.30;72.80;;;;;;10360665;28;20022;-81
2022/08/08 08:13:21;;;;;;;3.97;0.80;;;23.30;72.60;;;;;;10365999;28;20037;-82
2022/08/08 08:18:51;;;;;;;1.17;0.85;;;23.50;74.50;;;;;;10355256;28;20448;-82
2022/08/08 08:23:52;;;;;;;1999.90;999.90;;;23.60;74.60;;;;;;10354139;28;20061;-82
2022/08/08 08:29:40;;;;;;;1999.90;999.90;;;23.90;71.20;;;;;;10359612;28;20101;-81
2022/08/08 08:40:39;;;;;;;1999.90;999.90;;;24.00;68.60;;;;;;10356670;28;20049;-81
2022/08/08 08:51:43;;;;;;;1999.90;999.90;;;24.50;66.50;;;;;;10363193;28;20030;-81
2022/08/08 08:56:44;;;;;;;1999.90;999.90;;;24.80;65.50;;;;;;10352910;28;20084;-81
2022/08/08 09:02:06;;;;;;;1999.90;999.90;;;25.00;62.40;;;;;;10356226;28;20113;-82
2022/08/08 09:07:17;;;;;;;1999.90;999.90;;;25.20;64.70;;;;;;10334655;28;20025;-82
2022/08/08 09:12:21;;;;;;;1999.90;999.90;;;25.90;63.10;;;;;;10338108;28;20080;-82
2022/08/08 09:17:23;;;;;;;1353.77;671.13;;;25.40;60.40;;;;;;10348739;28;20117;-82
2022/08/08 09:22:25;;;;;;;127.18;120.85;;;24.80;61.20;;;;;;10351518;28;20033;-82
2022/08/08 09:27:26;;;;;;;208.00;99.65;;;24.40;61.70;;;;;;10332974;28;20485;-83
2022/08/08 09:38:37;;;;;;;1999.90;999.90;;;23.40;66.90;;;;;;10330809;28;20045;-82
2022/08/08 09:43:56;;;;;;;1999.90;999.90;;;23.50;67.40;;;;;;10350089;28;20030;-82
2022/08/08 09:48:58;;;;;;;393.60;138.82;;;23.50;64.50;;;;;;10337592;28;20060;-82
2022/08/08 09:54:36;;;;;;;2.00;1.00;;;23.10;63.50;;;;;;10349217;28;20136;-82
2022/08/08 09:59:41;;;;;;;1.85;1.15;;;22.80;64.90;;;;;;10332039;28;20038;-82
2022/08/08 10:04:42;;;;;;;177.25;168.48;;;23.00;66.50;;;;;;10353164;28;20018;-83
2022/08/08 10:09:49;;;;;;;7.47;6.82;;;23.50;63.30;;;;;;10352874;28;20034;-82
2022/08/08 10:14:59;;;;;;;1038.18;530.92;;;23.20;63.10;;;;;;10348971;28;20151;-81
2022/08/08 10:20:01;;;;;;;1999.90;999.90;;;23.10;67.70;;;;;;10333608;28;20497;-82
2022/08/08 10:25:05;;;;;;;1999.90;999.90;;;23.60;66.60;;;;;;10336393;28;20033;-83
2022/08/08 10:30:06;;;;;;;1999.90;999.90;;;23.90;64.30;;;;;;10349915;28;20033;-82
2022/08/08 10:40:37;;;;;;;1999.90;999.90;;;23.60;69.90;;;;;;10350198;28;20038;-82
2022/08/08 10:45:45;;;;;;;99.18;94.85;;;23.60;66.20;;;;;;10339103;28;20085;-82
2022/08/08 10:50:47;;;;;;;1999.90;999.90;;;23.20;64.40;;;;;;10340635;28;20559;-83
2022/08/08 10:56:12;;;;;;;1999.90;999.90;;;23.70;68.00;;;;;;10338072;28;20048;-82
2022/08/08 11:01:13;;;;;;;1999.90;999.90;;;24.00;62.40;;;;;;10324773;28;20668;-81
2022/08/08 11:06:20;;;;;;;1999.90;999.90;;;23.60;65.70;;;;;;10357192;28;20120;-82
2022/08/08 11:11:20;;;;;;;1999.90;999.90;;;23.50;67.40;;;;;;10363498;28;20038;-82
2022/08/08 11:16:22;;;;;;;1999.90;999.90;;;23.70;64.90;;;;;;10358440;28;20458;-83
2022/08/08 11:21:46;;;;;;;1999.90;999.90;;;23.80;62.90;;;;;;10349427;28;20030;-82
2022/08/08 11:26:47;;;;;;;1999.90;999.90;;;23.70;62.80;;;;;;10359732;28;20662;-83
2022/08/08 11:32:16;;;;;;;1999.90;999.90;;;23.80;64.10;;;;;;10346652;28;20040;-82
2022/08/08 11:38:13;;;;;;;1999.90;999.90;;;23.90;65.90;;;;;;10352305;28;20635;-81
2022/08/08 11:43:15;;;;;;;8.50;7.93;;;24.40;63.60;;;;;;10344922;28;20413;-82
2022/08/08 11:48:17;;;;;;;23.02;21.85;;;24.30;62.90;;;;;;10356334;28;20030;-80
2022/08/08 11:59:33;;;;;;;17.50;16.75;;;23.90;62.10;;;;;;10276141;28;20678;-80
2022/08/08 12:04:37;;;;;;;7.30;6.80;;;24.10;63.80;;;;;;10280786;28;20058;-82
2022/08/08 12:10:10;;;;;;;154.87;148.27;;;24.30;64.00;;;;;;10276884;28;20035;-83
2022/08/08 12:15:12;;;;;;;1999.90;999.90;;;24.60;63.80;;;;;;10276693;28;20122;-83
2022/08/08 12:20:12;;;;;;;386.02;370.02;;;24.40;64.50;;;;;;10271360;28;20026;-83
2022/08/08 12:25:25;;;;;;;3.33;2.92;;;24.20;63.10;;;;;;10269485;28;20023;-81
2022/08/08 12:30:30;;;;;;;6.97;3.42;;;24.40;66.90;;;;;;10283740;28;20066;-82
2022/08/08 12:35:40;;;;;;;1999.90;999.90;;;24.00;64.00;;;;;;10287615;28;20034;-82
2022/08/08 12:40:49;;;;;;;1999.90;999.90;;;23.70;64.40;;;;;;10282993;28;20383;-82
2022/08/08 12:45:49;;;;;;;1999.90;999.90;;;23.80;65.10;;;;;;10279569;28;20026;-82
2022/08/08 12:50:55;;;;;;;1999.90;999.90;;;23.80;65.30;;;;;;10284327;28;20039;-84
2022/08/08 12:56:01;;;;;;;2.60;1.30;;;23.60;63.90;;;;;;10307156;28;20068;-82
2022/08/08 13:01:10;;;;;;;1999.90;999.90;;;23.50;64.50;;;;;;10364102;28;20026;-82
2022/08/08 13:06:18;;;;;;;1999.90;999.90;;;23.60;64.10;;;;;;10363600;28;20025;-82
2022/08/08 13:11:34;;;;;;;1510.53;759.80;;;23.80;65.90;;;;;;10342692;28;20124;-82
2022/08/08 13:16:34;;;;;;;31.70;29.08;;;23.80;64.10;;;;;;10360203;28;20049;-83
2022/08/08 13:21:43;;;;;;;1999.90;999.90;;;23.50;63.80;;;;;;10364751;28;20381;-81
2022/08/08 13:26:44;;;;;;;22.42;21.13;;;23.50;63.50;;;;;;10362123;28;20136;-83
2022/08/08 13:31:50;;;;;;;1999.90;999.90;;;23.40;65.10;;;;;;10358508;28;20117;-81
2022/08/08 13:36:51;;;;;;;;;;;23.70;62.00;;;;;;10360325;28;20764;-82
2022/08/08 13:41:53;;;;;;;1999.90;999.90;;;23.90;62.30;;;;;;10357445;28;19906;-82
2022/08/08 13:46:57;;;;;;;1999.90;999.90;;;24.30;62.40;;;;;;10360788;28;20025;-82
2022/08/08 13:52:01;;;;;;;62.78;59.67;;;24.40;62.00;;;;;;10342127;28;20022;-82
2022/08/08 13:57:07;;;;;;;49.10;46.88;;;24.00;61.70;;;;;;10358834;28;20555;-81
2022/08/08 14:02:20;;;;;;;36.85;34.45;;;23.60;62.50;;;;;;10360653;28;20108;-82
2022/08/08 14:07:24;;;;;;;111.25;105.00;;;23.50;64.40;;;;;;10359272;28;20482;-81
2022/08/08 14:12:27;;;;;;;1039.93;537.58;;;23.40;65.50;;;;;;10356207;28;20446;-80
2022/08/08 14:17:27;;;;;;;11.35;10.68;;;23.50;63.40;;;;;;10356132;28;20042;-82
2022/08/08 14:22:28;;;;;;;1020.22;518.92;;;23.30;63.70;;;;;;10363728;28;20437;-83
2022/08/08 14:27:34;;;;;;;1999.90;999.90;;;23.30;63.30;;;;;;10350899;28;20030;-84
2022/08/08 14:32:43;;;;;;;1999.90;999.90;;;23.30;64.30;;;;;;10354106;28;20022;-83
2022/08/08 14:37:47;;;;;;;1999.90;999.90;;;23.30;64.20;;;;;;10356771;28;20045;-83
2022/08/08 14:42:50;;;;;;;1999.90;999.90;;;23.50;64.10;;;;;;10362400;28;20030;-82
2022/08/08 14:47:59;;;;;;;1999.90;999.90;;;23.60;65.20;;;;;;10371001;28;20065;-84
2022/08/08 14:53:09;;;;;;;1999.90;999.90;;;23.60;63.50;;;;;;10369453;28;20061;-83
2022/08/08 14:58:10;;;;;;;1999.90;999.90;;;23.40;63.40;;;;;;10363258;28;20560;-82
2022/08/08 15:03:11;;;;;;;71.07;26.92;;;23.20;63.90;;;;;;10352502;28;20053;-82
2022/08/08 15:08:11;;;;;;;1.58;1.02;;;23.20;63.40;;;;;;10366549;28;20026;-82
2022/08/08 15:13:12;;;;;;;1.50;0.82;;;23.30;65.30;;;;;;10368190;28;20457;-82
2022/08/08 15:18:13;;;;;;;3.72;1.15;;;23.20;63.10;;;;;;10366592;28;20052;-82
2022/08/08 15:23:13;;;;;;;1.50;0.63;;;23.20;65.30;;;;;;10368261;28;20417;-81
2022/08/08 15:28:14;;;;;;;3.22;1.02;;;23.20;64.40;;;;;;10364174;28;20680;-81
2022/08/08 15:33:14;;;;;;;0.93;0.73;;;23.10;63.60;;;;;;10359146;28;20104;-83
2022/08/08 15:38:16;;;;;;;4.30;0.95;;;23.30;65.10;;;;;;10366825;28;20401;-83
2022/08/08 15:43:16;;;;;;;1.42;0.88;;;23.30;63.90;;;;;;10367409;28;20034;-83
2022/08/08 15:48:17;;;;;;;1.45;0.52;;;23.10;63.80;;;;;;10367541;28;20474;-83
2022/08/08 15:53:19;;;;;;;4.53;0.93;;;23.00;64.70;;;;;;10367701;28;20109;-83
2022/08/08 15:58:20;;;;;;;1.75;1.13;;;23.10;65.00;;;;;;10366423;28;20143;-82
2022/08/08 16:03:21;;;;;;;306.95;103.90;;;23.20;65.50;;;;;;10367492;28;20033;-82
2022/08/08 16:08:21;;;;;;;3.75;1.80;;;23.20;68.30;;;;;;10364407;28;20025;-84
2022/08/08 16:13:22;;;;;;;3.33;1.85;;;23.20;65.10;;;;;;10366243;28;20076;-83
2022/08/08 16:18:22;;;;;;;2.53;1.40;;;23.10;64.40;;;;;;10364547;28;20045;-83
2022/08/08 16:23:23;;;;;;;1.98;1.30;;;23.10;64.70;;;;;;10366468;28;20026;-82
2022/08/08 16:28:24;;;;;;;2.38;1.40;;;23.10;66.60;;;;;;10365835;28;20109;-83
2022/08/08 16:33:25;;;;;;;3.33;1.38;;;22.80;65.20;;;;;;10365284;28;20084;-82
2022/08/08 16:38:29;;;;;;;3.47;1.95;;;22.60;66.40;;;;;;10345286;28;20037;-81
2022/08/08 16:43:31;;;;;;;;;;;22.50;67.40;;;;;;10354579;28;20037;-80
2022/08/08 16:48:34;;;;;;;2.10;1.33;;;22.30;67.60;;;;;;10359282;28;19917;-82
2022/08/08 16:53:35;;;;;;;3.08;1.45;;;22.20;67.60;;;;;;10345566;28;20034;-80
2022/08/08 16:58:36;;;;;;;3.28;1.80;;;22.10;68.20;;;;;;10361446;28;20049;-81
2022/08/08 17:03:37;;;;;;;8.55;2.08;;;22.00;68.90;;;;;;10343196;28;20026;-80
2022/08/08 17:08:38;;;;;;;3.28;1.95;;;21.90;68.90;;;;;;10361875;28;20042;-80
2022/08/08 17:13:39;;;;;;;5.45;2.20;;;21.90;69.50;;;;;;10346114;28;20855;-80
2022/08/08 17:18:40;;;;;;;3.90;2.08;;;21.80;69.80;;;;;;10345161;28;20115;-82
2022/08/08 17:23:41;;;;;;;3.85;1.90;;;21.70;70.00;;;;;;10362072;28;20033;-82
2022/08/08 17:28:41;;;;;;;3.70;1.63;;;21.70;70.40;;;;;;10363163;28;20026;-82
2022/08/08 17:33:42;;;;;;;6.07;1.90;;;21.70;70.80;;;;;;10343584;28;20581;-82
2022/08/08 17:38:44;;;;;;;3.50;2.00;;;21.60;70.90;;;;;;10363787;28;20033;-81
2022/08/08 17:43:45;;;;;;;4.68;1.80;;;21.50;72.50;;;;;;10340629;28;20040;-82
2022/08/08 17:48:45;;;;;;;3.60;1.70;;;21.30;72.60;;;;;;10358804;28;20029;-81
2022/08/08 17:53:46;;;;;;;5.97;1.98;;;21.10;76.50;;;;;;10358980;28;20039;-78
2022/08/08 17:58:46;;;;;;;7.57;2.40;;;20.80;79.40;;;;;;10360786;28;20506;-80
2022/08/08 18:03:47;;;;;;;3.92;1.27;;;20.30;80.30;;;;;;10358380;28;20083;-82
2022/08/08 18:08:48;;;;;;;4.07;1.05;;;19.80;82.30;;;;;;10340180;28;20038;-82
2022/08/08 18:13:48;;;;;;;3.63;1.30;;;19.30;83.10;;;;;;10356794;28;20686;-81
2022/08/08 18:18:50;;;;;;;1.20;1.10;;;18.90;84.60;;;;;;10363626;28;20554;-82
2022/08/08 18:23:51;;;;;;;2.28;1.38;;;18.40;84.80;;;;;;10356863;28;20041;-82
2022/08/08 18:28:57;;;;;;;3.53;1.65;;;18.00;85.60;;;;;;10365628;28;20026;-82
2022/08/08 18:33:58;;;;;;;5.10;1.67;;;17.70;87.00;;;;;;10353177;28;20092;-83
2022/08/08 18:38:59;;;;;;;4.28;2.20;;;17.40;88.20;;;;;;10370731;28;20080;-85
2022/08/08 18:43:59;;;;;;;2.83;1.92;;;17.10;89.30;;;;;;10373819;28;20509;-82
2022/08/08 18:49:02;;;;;;;2.85;1.77;;;16.90;90.60;;;;;;10371070;28;20033;-84
2022/08/08 18:54:03;;;;;;;3.42;1.65;;;16.60;91.00;;;;;;10355563;28;20034;-84
2022/08/08 18:59:03;;;;;;;2.08;1.52;;;16.50;91.90;;;;;;10374919;28;20085;-83
2022/08/08 19:04:04;;;;;;;3.55;2.40;;;16.40;92.20;;;;;;10373305;28;20034;-82
2022/08/08 19:09:04;;;;;;;4.43;2.50;;;16.10;94.20;;;;;;10352509;28;20029;-82
2022/08/08 19:14:05;;;;;;;4.00;2.35;;;16.10;94.80;;;;;;10373011;28;20033;-83
2022/08/08 19:19:08;;;;;;;5.55;2.85;;;15.90;96.00;;;;;;10373363;28;20358;-86
2022/08/08 19:24:08;;;;;;;3.42;2.33;;;15.80;97.70;;;;;;10370036;28;20060;-83
2022/08/08 19:29:09;;;;;;;5.00;2.42;;;15.70;98.80;;;;;;10366884;28;20034;-83
2022/08/08 19:34:09;;;;;;;3.40;2.65;;;15.50;99.90;;;;;;10348800;28;20045;-82
2022/08/08 19:39:10;;;;;;;9.40;2.92;;;15.40;99.90;;;;;;10365927;28;20041;-82
2022/08/08 19:44:11;;;;;;;5.25;2.95;;;15.30;99.90;;;;;;10363998;28;20075;-82
2022/08/08 19:49:11;;;;;;;4.68;2.70;;;15.20;99.90;;;;;;10348774;28;20014;-83
2022/08/08 19:54:12;;;;;;;4.45;2.85;;;15.10;99.90;;;;;;10362529;28;20029;-83
2022/08/08 19:59:12;;;;;;;7.43;3.65;;;15.10;99.90;;;;;;10361236;28;20046;-83
2022/08/08 20:04:13;;;;;;;4.85;2.85;;;15.00;99.90;;;;;;10359405;28;20040;-84
2022/08/08 20:09:14;;;;;;;5.03;3.60;;;14.90;99.90;;;;;;10366702;28;20079;-83
2022/08/08 20:14:14;;;;;;;7.35;3.08;;;14.80;99.90;;;;;;10366430;28;20577;-82
2022/08/08 20:19:15;;;;;;;7.78;3.40;;;14.80;99.90;;;;;;10364174;28;20046;-83
2022/08/08 20:24:16;;;;;;;5.82;3.45;;;14.70;99.90;;;;;;10363989;28;20034;-83
2022/08/08 20:29:17;;;;;;;7.13;3.92;;;14.70;99.90;;;;;;10365629;28;20590;-84
2022/08/08 20:34:19;;;;;;;5.72;3.67;;;14.80;99.90;;;;;;10351019;28;20041;-83
2022/08/08 20:39:20;;;;;;;6.22;3.65;;;14.80;99.90;;;;;;10365161;28;20038;-82
2022/08/08 20:44:20;;;;;;;9.85;4.47;;;14.80;99.90;;;;;;10356907;28;20033;-83
2022/08/08 20:49:21;;;;;;;7.47;3.97;;;15.10;99.90;;;;;;10362068;28;20118;-83
2022/08/08 20:54:22;;;;;;;12.32;4.70;;;15.40;99.90;;;;;;10364366;28;20044;-83
2022/08/08 20:59:22;;;;;;;10.82;4.60;;;15.50;99.90;;;;;;10362223;28;20446;-83
2022/08/08 21:04:23;;;;;;;6.85;4.00;;;15.70;99.90;;;;;;10365311;28;20030;-82
2022/08/08 21:09:24;;;;;;;9.40;4.63;;;15.70;99.90;;;;;;10362187;28;20018;-82
2022/08/08 21:14:25;;;;;;;7.00;4.53;;;15.80;99.90;;;;;;10361783;28;20037;-83
2022/08/08 21:19:27;;;;;;;8.00;4.28;;;15.80;99.90;;;;;;10365581;28;20113;-83
2022/08/08 21:24:31;;;;;;;8.38;4.40;;;15.80;99.90;;;;;;10364699;28;20037;-84
2022/08/08 21:29:31;;;;;;;8.30;4.28;;;15.90;99.90;;;;;;10365304;28;20529;-83
2022/08/08 21:34:33;;;;;;;6.20;4.38;;;16.10;99.90;;;;;;10363632;28;20041;-83
2022/08/08 21:39:33;;;;;;;9.65;4.53;;;16.10;99.90;;;;;;10363428;28;20033;-83
2022/08/08 21:44:34;;;;;;;7.78;4.30;;;16.10;99.90;;;;;;10346660;28;20721;-84
2022/08/08 21:49:35;;;;;;;10.43;4.47;;;16.10;99.90;;;;;;10364828;28;20033;-84
2022/08/08 21:54:37;;;;;;;6.15;4.07;;;16.00;99.90;;;;;;10363038;28;20049;-83
2022/08/08 21:59:37;;;;;;;6.55;4.32;;;16.10;99.90;;;;;;10364648;28;20065;-83
2022/08/08 22:04:38;;;;;;;7.25;4.00;;;16.10;99.90;;;;;;10364203;28;20117;-84
2022/08/08 22:09:41;;;;;;;8.10;3.80;;;16.20;99.90;;;;;;10364102;28;20030;-83
2022/08/08 22:14:41;;;;;;;8.60;4.22;;;16.20;99.90;;;;;;10363295;28;20081;-83
2022/08/08 22:19:42;;;;;;;6.22;4.05;;;16.10;99.90;;;;;;10353420;28;20706;-83
2022/08/08 22:24:43;;;;;;;11.32;4.25;;;16.10;99.90;;;;;;10353358;28;20045;-83
2022/08/08 22:29:44;;;;;;;9.88;4.15;;;16.00;99.90;;;;;;10354354;28;20088;-82
2022/08/08 22:34:45;;;;;;;6.32;4.13;;;16.00;99.90;;;;;;10359457;28;20406;-83
2022/08/08 22:39:46;;;;;;;6.53;4.00;;;15.90;99.90;;;;;;10362103;28;20038;-83
2022/08/08 22:44:46;;;;;;;6.22;3.60;;;15.80;99.90;;;;;;10339391;28;20022;-83
2022/08/08 22:49:47;;;;;;;7.65;3.97;;;15.70;99.90;;;;;;10361917;28;20038;-82
2022/08/08 22:54:48;;;;;;;6.55;3.90;;;15.70;99.90;;;;;;10355189;28;20541;-83
2022/08/08 22:59:49;;;;;;;9.48;4.47;;;15.70;99.90;;;;;;10362884;28;20504;-83
2022/08/08 23:04:55;;;;;;;8.90;4.20;;;15.60;99.90;;;;;;10342441;28;20042;-83
2022/08/08 23:09:56;;;;;;;6.13;3.85;;;15.60;99.90;;;;;;10362355;28;20072;-83
2022/08/08 23:14:57;;;;;;;8.57;3.83;;;15.60;99.90;;;;;;10368781;28;20169;-82
2022/08/08 23:19:57;;;;;;;7.20;4.00;;;15.50;99.90;;;;;;10366573;28;20042;-82
2022/08/08 23:24:58;;;;;;;9.27;3.80;;;15.50;99.90;;;;;;10368755;28;20026;-83
2022/08/08 23:29:59;;;;;;;8.00;4.32;;;15.40;99.90;;;;;;10351249;28;20030;-82
2022/08/08 23:34:59;;;;;;;9.02;4.40;;;15.30;99.90;;;;;;10368559;28;20540;-83
2022/08/08 23:40:00;;;;;;;5.85;3.55;;;15.30;99.90;;;;;;10363362;28;20608;-84
2022/08/08 23:45:00;;;;;;;9.10;4.35;;;15.30;99.90;;;;;;10366306;28;20156;-83
2022/08/08 23:50:01;;;;;;;10.20;4.40;;;15.20;99.90;;;;;;10363169;28;20025;-82
2022/08/08 23:55:02;;;;;;;5.00;3.65;;;15.20;99.90;;;;;;10346272;28;20401;-82
